createdAt,value
2022-08-17T00:00:57.162Z,11.10
2022-08-17T00:03:39.582Z,11.00
2022-08-17T00:06:17.032Z,10.90
2022-08-17T00:08:51.288Z,11.40
2022-08-17T00:11:28.976Z,12.50
2022-08-17T00:14:21.035Z,13.70
2022-08-17T00:16:58.213Z,14.50
2022-08-17T00:19:28.838Z,13.90
2022-08-17T00:22:30.824Z,13.60
2022-08-17T00:24:53.093Z,12.50
2022-08-17T00:27:24.268Z,11.70
2022-08-17T00:29:54.407Z,12.00
2022-08-17T00:33:15.711Z,12.00
2022-08-17T00:35:29.969Z,12.00
2022-08-17T00:37:58.772Z,11.70
2022-08-17T00:40:40.739Z,11.50
2022-08-17T00:43:20.937Z,11.90
2022-08-17T00:45:52.569Z,11.90
2022-08-17T00:48:29.809Z,11.20
2022-08-17T00:51:30.423Z,12.40
2022-08-17T00:54:14.043Z,10.90
2022-08-17T00:57:14.108Z,12.20
2022-08-17T01:00:03.256Z,12.20
2022-08-17T01:02:42.701Z,12.40
2022-08-17T01:05:20.850Z,12.90
2022-08-17T01:07:53.857Z,11.40
2022-08-17T01:10:58.482Z,11.80
2022-08-17T01:13:44.137Z,12.60
2022-08-17T01:16:29.294Z,13.50
2022-08-17T01:19:04.167Z,12.70
2022-08-17T01:21:53.495Z,11.30
2022-08-17T01:24:24.934Z,11.50
2022-08-17T01:26:57.731Z,12.20
2022-08-17T01:29:31.036Z,11.80
2022-08-17T01:32:06.961Z,12.40
2022-08-17T01:34:43.383Z,11.10
2022-08-17T01:37:33.479Z,11.50
2022-08-17T01:40:38.621Z,11.50
2022-08-17T01:43:22.583Z,11.80
2022-08-17T01:46:02.654Z,12.40
2022-08-17T01:48:41.622Z,12.80
2022-08-17T01:51:14.921Z,12.60
2022-08-17T01:53:53.485Z,12.90
2022-08-17T01:56:29.070Z,12.50
2022-08-17T01:59:01.227Z,12.60
2022-08-17T02:01:35.352Z,12.90
2022-08-17T02:04:08.800Z,13.50
2022-08-17T02:06:52.930Z,12.70
2022-08-17T02:09:30.127Z,12.60
2022-08-17T02:12:37.304Z,13.40
2022-08-17T02:14:57.740Z,12.90
2022-08-17T02:17:30.379Z,11.30
2022-08-17T02:20:02.442Z,11.80
2022-08-17T02:22:36.484Z,11.90
2022-08-17T02:25:11.506Z,12.30
2022-08-17T02:27:40.604Z,13.20
2022-08-17T02:30:49.868Z,12.20
2022-08-17T02:33:04.242Z,13.10
2022-08-17T02:35:38.876Z,13.70
2022-08-17T02:38:07.952Z,13.60
2022-08-17T02:40:37.612Z,12.90
2022-08-17T02:43:09.680Z,13.10
2022-08-17T02:45:38.477Z,12.70
2022-08-17T02:48:07.471Z,12.10
2022-08-17T02:50:37.233Z,13.30
2022-08-17T02:53:06.252Z,13.00
2022-08-17T02:55:38.562Z,12.60
2022-08-17T02:58:08.857Z,12.70
2022-08-17T03:00:41.948Z,12.30
2022-08-17T03:03:14.062Z,11.70
2022-08-17T03:05:43.383Z,13.50
2022-08-17T03:08:13.364Z,12.30
2022-08-17T03:10:44.406Z,11.20
2022-08-17T03:13:15.915Z,11.60
2022-08-17T03:15:46.473Z,11.10
2022-08-17T03:18:25.050Z,11.30
2022-08-17T03:20:59.079Z,11.00
2022-08-17T03:23:30.345Z,11.30
2022-08-17T03:26:01.190Z,10.50
2022-08-17T03:28:31.209Z,10.80
2022-08-17T03:31:00.319Z,12.40
2022-08-17T03:33:29.669Z,12.80
2022-08-17T03:35:59.116Z,11.30
2022-08-17T03:38:28.413Z,12.10
2022-08-17T03:40:59.754Z,13.10
2022-08-17T03:43:32.228Z,13.20
2022-08-17T03:46:27.237Z,13.40
2022-08-17T03:49:16.756Z,13.00
2022-08-17T03:52:04.091Z,13.80
2022-08-17T03:54:51.613Z,13.80
2022-08-17T03:57:20.587Z,12.80
2022-08-17T03:59:49.872Z,12.30
2022-08-17T04:02:29.420Z,12.10
2022-08-17T04:04:59.186Z,12.60
2022-08-17T04:07:30.665Z,13.00
2022-08-17T04:10:00.782Z,13.20
2022-08-17T04:12:42.467Z,12.90
2022-08-17T04:15:12.934Z,12.60
2022-08-17T04:17:41.516Z,14.60
2022-08-17T04:20:12.927Z,14.10
2022-08-17T04:23:00.062Z,13.40
2022-08-17T04:25:31.277Z,12.70
2022-08-17T04:28:01.488Z,12.10
2022-08-17T04:30:34.069Z,12.90
2022-08-17T04:33:10.781Z,13.50
2022-08-17T04:35:46.058Z,15.30
2022-08-17T04:38:18.062Z,16.50
2022-08-17T04:41:05.517Z,15.20
2022-08-17T04:43:36.677Z,16.00
2022-08-17T04:46:15.091Z,14.70
2022-08-17T04:48:48.898Z,15.30
2022-08-17T04:51:25.733Z,15.30
2022-08-17T04:54:01.456Z,14.80
2022-08-17T04:56:32.219Z,16.40
2022-08-17T04:59:05.523Z,15.90
2022-08-17T05:01:36.848Z,16.00
2022-08-17T05:04:33.283Z,16.30
2022-08-17T05:07:00.393Z,15.20
2022-08-17T05:09:29.720Z,15.90
2022-08-17T05:12:02.693Z,16.70
2022-08-17T05:14:32.463Z,16.50
2022-08-17T05:17:04.160Z,17.10
2022-08-17T05:19:38.451Z,17.90
2022-08-17T05:22:07.293Z,17.60
2022-08-17T05:24:41.251Z,16.20
2022-08-17T05:27:18.887Z,17.20
2022-08-17T05:29:49.261Z,17.30
2022-08-17T05:32:39.247Z,17.40
2022-08-17T05:35:09.823Z,15.70
2022-08-17T05:37:40.505Z,16.50
2022-08-17T05:40:11.526Z,16.30
2022-08-17T05:42:41.868Z,16.50
2022-08-17T05:45:12.242Z,15.80
2022-08-17T05:47:45.512Z,14.70
2022-08-17T05:50:27.033Z,15.40
2022-08-17T05:53:37.450Z,15.20
2022-08-17T05:56:28.007Z,13.80
2022-08-17T05:59:24.829Z,14.70
2022-08-17T06:02:48.221Z,14.50
2022-08-17T06:05:51.969Z,13.90
2022-08-17T06:08:33.863Z,13.60
2022-08-17T06:11:40.758Z,13.90
2022-08-17T06:14:27.561Z,14.80
2022-08-17T06:17:02.703Z,14.10
2022-08-17T06:19:31.931Z,15.40
2022-08-17T06:22:03.514Z,15.30
2022-08-17T06:24:43.315Z,14.40
2022-08-17T06:27:27.137Z,12.70
2022-08-17T06:30:59.174Z,13.80
2022-08-17T06:33:24.881Z,12.90
2022-08-17T06:36:02.798Z,12.60
2022-08-17T06:39:08.291Z,11.90
2022-08-17T06:41:50.997Z,12.70
2022-08-17T06:44:50.269Z,11.90
2022-08-17T06:47:48.999Z,12.80
2022-08-17T06:50:27.632Z,11.70
2022-08-17T06:53:31.960Z,12.60
2022-08-17T06:56:14.538Z,11.90
2022-08-17T06:58:45.643Z,11.20
2022-08-17T07:01:31.619Z,11.50
2022-08-17T07:04:18.389Z,11.40
2022-08-17T07:07:27.538Z,10.90
2022-08-17T07:10:02.864Z,11.10
2022-08-17T07:12:40.251Z,10.40
2022-08-17T07:15:26.673Z,10.60
2022-08-17T07:17:57.914Z,10.50
2022-08-17T07:20:28.889Z,10.10
2022-08-17T07:23:04.970Z,9.80
2022-08-17T07:25:35.331Z,10.10
2022-08-17T07:28:07.991Z,9.90
2022-08-17T07:30:45.702Z,9.70
2022-08-17T07:33:28.422Z,9.20
2022-08-17T07:35:59.564Z,8.90
2022-08-17T07:38:32.737Z,9.00
2022-08-17T07:41:11.469Z,8.80
2022-08-17T07:43:41.009Z,8.90
2022-08-17T07:46:41.229Z,8.50
2022-08-17T07:49:10.205Z,9.00
2022-08-17T07:51:48.857Z,8.70
2022-08-17T07:54:23.390Z,8.50
2022-08-17T07:57:03.776Z,8.80
2022-08-17T07:59:35.013Z,8.30
2022-08-17T08:02:17.804Z,9.00
2022-08-17T08:05:01.481Z,8.60
2022-08-17T08:08:04.023Z,8.80
2022-08-17T08:10:42.748Z,8.20
2022-08-17T08:13:22.678Z,8.90
2022-08-17T08:15:55.703Z,8.70
2022-08-17T08:18:54.369Z,8.60
2022-08-17T08:21:52.388Z,8.70
2022-08-17T08:24:41.592Z,8.00
2022-08-17T08:27:30.547Z,7.60
2022-08-17T08:30:22.262Z,7.90
2022-08-17T08:33:24.144Z,7.50
2022-08-17T08:36:59.267Z,7.60
2022-08-17T08:39:23.072Z,8.30
2022-08-17T08:42:08.553Z,8.40
2022-08-17T08:45:04.446Z,7.60
2022-08-17T08:48:22.756Z,8.20
2022-08-17T08:51:20.442Z,7.90
2022-08-17T08:54:09.337Z,7.40
2022-08-17T08:57:22.271Z,8.20
2022-08-17T09:00:07.236Z,7.80
2022-08-17T09:02:58.142Z,7.60
2022-08-17T09:05:51.408Z,6.70
2022-08-17T09:08:30.649Z,7.00
2022-08-17T09:11:11.535Z,7.60
2022-08-17T09:14:00.574Z,7.60
2022-08-17T09:16:53.221Z,6.50
2022-08-17T09:19:49.366Z,7.10
2022-08-17T09:22:42.950Z,7.00
2022-08-17T09:25:23.190Z,6.60
2022-08-17T09:28:00.764Z,6.00
2022-08-17T09:30:45.779Z,6.20
2022-08-17T09:33:28.257Z,6.40
2022-08-17T09:36:04.947Z,6.00
2022-08-17T09:38:52.812Z,5.80
2022-08-17T09:41:35.781Z,5.70
2022-08-17T09:44:23.634Z,6.30
2022-08-17T09:47:01.224Z,5.90
2022-08-17T09:49:45.360Z,6.30
2022-08-17T09:52:23.804Z,5.80
2022-08-17T09:54:56.559Z,5.40
2022-08-17T09:57:44.635Z,4.80
2022-08-17T10:00:25.016Z,6.20
2022-08-17T10:03:22.520Z,5.20
2022-08-17T10:06:09.637Z,5.70
2022-08-17T10:09:08.752Z,4.80
2022-08-17T10:12:10.608Z,4.80
2022-08-17T10:14:56.340Z,5.00
2022-08-17T10:17:26.530Z,4.60
2022-08-17T10:20:22.028Z,4.90
2022-08-17T10:23:40.202Z,5.10
2022-08-17T10:26:18.598Z,5.70
2022-08-17T10:28:57.668Z,6.30
2022-08-17T10:31:50.998Z,6.20
2022-08-17T10:35:11.929Z,6.60
2022-08-17T10:37:59.531Z,6.40
2022-08-17T10:40:37.006Z,6.50
2022-08-17T10:43:38.274Z,6.70
2022-08-17T10:46:30.340Z,6.30
2022-08-17T10:49:18.879Z,5.90
2022-08-17T10:51:54.663Z,5.50
2022-08-17T10:54:25.864Z,6.00
2022-08-17T10:56:58.465Z,5.20
2022-08-17T10:59:36.172Z,5.90
2022-08-17T11:02:04.716Z,5.20
2022-08-17T11:05:09.108Z,4.80
2022-08-17T11:08:06.675Z,5.10
2022-08-17T11:11:23.468Z,5.40
2022-08-17T11:13:54.801Z,5.30
2022-08-17T11:16:48.040Z,5.00
2022-08-17T11:19:47.952Z,5.20
2022-08-17T11:22:40.759Z,5.80
2022-08-17T11:25:19.668Z,4.90
2022-08-17T11:28:05.808Z,6.30
2022-08-17T11:30:53.811Z,5.80
2022-08-17T11:33:36.598Z,4.80
2022-08-17T11:36:22.967Z,4.60
2022-08-17T11:38:51.412Z,3.70
2022-08-17T11:41:42.293Z,4.10
2022-08-17T11:44:18.010Z,4.40
2022-08-17T11:47:39.155Z,4.50
2022-08-17T11:50:50.493Z,4.60
2022-08-17T11:53:37.887Z,4.70
2022-08-17T11:56:32.033Z,4.40
2022-08-17T11:59:03.514Z,4.80
2022-08-17T12:01:47.325Z,4.60
2022-08-17T12:04:26.596Z,5.30
2022-08-17T12:07:22.006Z,5.50
2022-08-17T12:09:54.930Z,4.60
2022-08-17T12:12:37.187Z,4.70
2022-08-17T12:15:11.046Z,4.80
2022-08-17T12:17:43.041Z,5.00
2022-08-17T12:20:18.879Z,4.90
2022-08-17T12:23:01.473Z,5.10
2022-08-17T12:25:41.919Z,4.30
2022-08-17T12:28:28.901Z,5.40
2022-08-17T12:31:09.174Z,5.20
2022-08-17T12:33:44.845Z,5.20
2022-08-17T12:36:17.895Z,5.70
2022-08-17T12:39:14.228Z,5.30
2022-08-17T12:41:50.307Z,5.00
2022-08-17T12:44:25.830Z,4.80
2022-08-17T12:47:22.403Z,5.50
2022-08-17T12:49:55.485Z,5.70
2022-08-17T12:52:28.410Z,5.60
2022-08-17T12:55:07.238Z,5.40
2022-08-17T12:57:38.759Z,5.50
2022-08-17T13:00:26.667Z,5.70
2022-08-17T13:03:01.161Z,5.80
2022-08-17T13:05:36.353Z,5.50
2022-08-17T13:08:15.564Z,5.00
2022-08-17T13:11:00.256Z,5.20
2022-08-17T13:13:34.381Z,5.60
2022-08-17T13:16:20.817Z,5.10
2022-08-17T13:19:08.243Z,5.50
2022-08-17T13:21:45.340Z,4.80
2022-08-17T13:24:18.182Z,5.70
2022-08-17T13:26:50.649Z,5.10
2022-08-17T13:29:28.931Z,5.10
2022-08-17T13:32:20.304Z,6.20
2022-08-17T13:35:12.132Z,5.70
2022-08-17T13:38:07.977Z,5.60
2022-08-17T13:40:45.628Z,5.30
2022-08-17T13:43:38.415Z,4.80
2022-08-17T13:46:18.926Z,4.40
2022-08-17T13:49:00.484Z,4.50
2022-08-17T13:51:46.574Z,4.30
2022-08-17T13:54:21.175Z,5.30
2022-08-17T13:57:03.922Z,5.20
2022-08-17T13:59:53.857Z,4.70
2022-08-17T14:02:28.737Z,4.80
2022-08-17T14:05:00.353Z,4.70
2022-08-17T14:07:35.979Z,5.00
2022-08-17T14:10:08.106Z,4.60
2022-08-17T14:12:41.515Z,5.20
2022-08-17T14:15:15.532Z,4.90
2022-08-17T14:17:44.590Z,4.70
2022-08-17T14:20:15.642Z,5.20
2022-08-17T14:22:49.713Z,5.20
2022-08-17T14:25:27.930Z,4.50
2022-08-17T14:27:56.783Z,5.40
2022-08-17T14:30:30.240Z,5.10
2022-08-17T14:33:02.394Z,5.10
2022-08-17T14:35:32.236Z,5.10
2022-08-17T14:38:06.163Z,4.70
2022-08-17T14:40:37.159Z,4.90
2022-08-17T14:43:06.998Z,5.00
2022-08-17T14:45:35.670Z,5.00
2022-08-17T14:48:10.091Z,4.70
2022-08-17T14:50:43.357Z,4.80
2022-08-17T14:53:16.520Z,4.80
2022-08-17T14:55:48.740Z,4.90
2022-08-17T14:58:19.700Z,5.40
2022-08-17T15:00:53.310Z,5.50
2022-08-17T15:03:25.373Z,5.20
2022-08-17T15:05:56.532Z,5.20
2022-08-17T15:08:27.633Z,5.20
2022-08-17T15:10:58.394Z,5.00
2022-08-17T15:13:29.950Z,5.40
2022-08-17T15:16:01.505Z,5.10
2022-08-17T15:18:33.206Z,5.60
2022-08-17T15:21:06.289Z,4.90
2022-08-17T15:23:37.208Z,4.90
2022-08-17T15:26:08.738Z,4.50
2022-08-17T15:28:40.501Z,4.70
2022-08-17T15:31:11.231Z,4.80
2022-08-17T15:33:42.034Z,4.60
2022-08-17T15:36:11.883Z,4.60
2022-08-17T15:38:44.552Z,5.60
2022-08-17T15:41:18.524Z,5.10
2022-08-17T15:43:50.642Z,5.10
2022-08-17T15:46:24.560Z,4.50
2022-08-17T15:49:00.302Z,4.50
2022-08-17T15:51:34.503Z,4.20
2022-08-17T15:54:18.671Z,4.40
2022-08-17T15:56:55.312Z,4.70
2022-08-17T15:59:26.496Z,4.30
2022-08-17T16:03:15.925Z,3.90
2022-08-17T16:04:53.051Z,4.30
2022-08-17T16:07:26.830Z,4.80
2022-08-17T16:09:58.388Z,4.20
2022-08-17T16:12:29.415Z,4.50
2022-08-17T16:15:00.292Z,4.10
2022-08-17T16:17:39.830Z,4.00
2022-08-17T16:20:20.713Z,4.60
2022-08-17T16:22:54.475Z,3.70
2022-08-17T16:28:35.804Z,4.50
2022-08-17T16:31:08.009Z,4.20
2022-08-17T16:33:39.660Z,4.00
2022-08-17T16:36:09.024Z,4.30
2022-08-17T16:38:39.125Z,4.00
2022-08-17T16:41:07.567Z,4.10
2022-08-17T16:43:36.177Z,4.60
2022-08-17T16:46:06.236Z,4.30
2022-08-17T16:48:36.261Z,4.50
2022-08-17T16:51:06.374Z,4.40
2022-08-17T16:53:36.919Z,4.50
2022-08-17T16:56:09.072Z,4.80
2022-08-17T16:58:42.985Z,4.00
2022-08-17T17:01:15.963Z,4.40
2022-08-17T17:03:53.122Z,4.30
2022-08-17T17:07:01.712Z,4.20
2022-08-17T17:09:38.479Z,4.30
2022-08-17T17:12:35.059Z,4.10
2022-08-17T17:15:11.256Z,4.10
2022-08-17T17:17:50.598Z,4.30
2022-08-17T17:20:36.581Z,5.00
2022-08-17T17:23:26.207Z,5.30
2022-08-17T17:26:33.049Z,4.80
2022-08-17T17:29:10.874Z,5.20
2022-08-17T17:31:58.691Z,4.80
2022-08-17T17:34:35.561Z,5.10
2022-08-17T17:37:15.565Z,5.50
2022-08-17T17:39:59.717Z,5.00
2022-08-17T17:42:33.728Z,5.60
2022-08-17T17:45:23.574Z,5.60
2022-08-17T17:47:54.796Z,5.30
2022-08-17T17:50:38.848Z,5.10
2022-08-17T17:53:41.870Z,5.00
2022-08-17T17:56:43.145Z,5.10
2022-08-17T17:59:41.811Z,5.20
2022-08-17T18:02:56.579Z,5.30
2022-08-17T18:05:37.386Z,6.00
2022-08-17T18:08:12.755Z,7.20
2022-08-17T18:11:05.131Z,8.50
2022-08-17T18:14:18.612Z,5.70
2022-08-17T18:16:54.415Z,6.50
2022-08-17T18:19:28.339Z,7.40
2022-08-17T18:22:14.820Z,7.30
2022-08-17T18:24:56.737Z,7.20
2022-08-17T18:27:53.458Z,7.60
2022-08-17T18:30:23.526Z,6.90
2022-08-17T18:32:55.132Z,6.50
2022-08-17T18:35:31.746Z,6.40
2022-08-17T18:38:35.396Z,6.30
2022-08-17T18:41:30.603Z,6.30
2022-08-17T18:44:29.303Z,6.50
2022-08-17T18:47:16.701Z,6.50
2022-08-17T18:50:01.705Z,6.40
2022-08-17T18:52:35.504Z,6.40
2022-08-17T18:55:15.358Z,7.10
2022-08-17T18:57:58.062Z,7.20
2022-08-17T19:00:41.970Z,7.20
2022-08-17T19:03:17.951Z,8.70
2022-08-17T19:05:57.271Z,8.60
2022-08-17T19:08:30.934Z,8.70
2022-08-17T19:11:11.765Z,8.70
2022-08-17T19:13:56.684Z,8.90
2022-08-17T19:16:34.145Z,9.40
2022-08-17T19:19:33.844Z,8.90
2022-08-17T19:22:31.024Z,9.70
2022-08-17T19:25:17.446Z,9.20
2022-08-17T19:27:57.829Z,9.90
2022-08-17T19:30:30.957Z,10.10
2022-08-17T19:33:05.807Z,10.30
2022-08-17T19:35:55.494Z,9.70
2022-08-17T19:38:32.021Z,10.20
2022-08-17T19:41:09.707Z,9.80
2022-08-17T19:44:21.914Z,10.70
2022-08-17T19:47:12.291Z,9.70
2022-08-17T19:50:12.509Z,9.30
2022-08-17T19:52:49.373Z,9.40
2022-08-17T19:55:46.833Z,10.50
2022-08-17T19:58:36.464Z,10.40
2022-08-17T20:01:33.969Z,10.20
2022-08-17T20:04:25.454Z,10.50
2022-08-17T20:07:33.435Z,12.60
2022-08-17T20:10:29.981Z,13.90
2022-08-17T20:13:18.065Z,13.90
2022-08-17T20:16:10.019Z,12.30
2022-08-17T20:18:54.432Z,12.50
2022-08-17T20:21:54.185Z,12.30
2022-08-17T20:24:40.058Z,13.20
2022-08-17T20:27:20.734Z,14.50
2022-08-17T20:29:56.991Z,12.50
2022-08-17T20:32:55.362Z,12.90
2022-08-17T20:35:31.834Z,12.90
2022-08-17T20:38:08.600Z,13.70
2022-08-17T20:41:04.356Z,12.50
2022-08-17T20:43:41.756Z,12.80
2022-08-17T20:46:35.628Z,12.80
2022-08-17T20:49:50.979Z,12.90
2022-08-17T20:52:48.738Z,13.40
2022-08-17T20:55:51.708Z,12.60
2022-08-17T20:58:33.949Z,12.00
2022-08-17T21:01:28.979Z,11.30
2022-08-17T21:03:59.865Z,11.40
2022-08-17T21:06:32.115Z,11.10
2022-08-17T21:09:13.035Z,12.70
2022-08-17T21:12:04.584Z,11.90
2022-08-17T21:15:07.634Z,11.60
2022-08-17T21:17:50.068Z,10.40
2022-08-17T21:20:52.751Z,12.60
2022-08-17T21:23:49.413Z,11.30
2022-08-17T21:27:03.218Z,11.00
2022-08-17T21:29:40.342Z,11.90
2022-08-17T21:32:18.492Z,12.10
2022-08-17T21:35:09.525Z,11.80
2022-08-17T21:37:48.514Z,14.10
2022-08-17T21:40:29.266Z,13.60
2022-08-17T21:43:24.747Z,12.10
2022-08-17T21:46:04.660Z,11.80
2022-08-17T21:48:45.363Z,13.30
2022-08-17T21:51:29.024Z,12.60
2022-08-17T21:54:07.523Z,11.90
2022-08-17T21:56:46.757Z,12.50
2022-08-17T21:59:35.975Z,11.50
2022-08-17T22:02:31.028Z,12.00
2022-08-17T22:05:08.577Z,12.10
2022-08-17T22:07:49.072Z,13.60
2022-08-17T22:10:48.633Z,13.40
2022-08-17T22:13:29.763Z,12.40
2022-08-17T22:19:05.849Z,12.80
2022-08-17T22:21:36.793Z,13.00
2022-08-17T22:24:25.959Z,12.50
2022-08-17T22:27:06.125Z,13.50
2022-08-17T22:29:58.332Z,13.40
2022-08-17T22:32:38.519Z,13.00
2022-08-17T22:35:18.433Z,13.00
2022-08-17T22:37:51.874Z,13.70
2022-08-17T22:40:35.817Z,14.00
2022-08-17T22:43:06.897Z,15.30
2022-08-17T22:45:45.567Z,15.00
2022-08-17T22:48:27.258Z,15.40
2022-08-17T22:51:28.501Z,13.60
2022-08-17T22:54:40.690Z,12.00
2022-08-17T22:57:39.251Z,11.20
2022-08-17T23:00:34.799Z,11.90
2022-08-17T23:03:20.906Z,12.70
2022-08-17T23:06:11.303Z,13.40
2022-08-17T23:09:00.987Z,12.10
2022-08-17T23:11:50.882Z,12.10
2022-08-17T23:14:25.565Z,11.80
2022-08-17T23:16:59.518Z,11.80
2022-08-17T23:19:33.541Z,12.00
2022-08-17T23:22:08.769Z,12.50
2022-08-17T23:24:50.080Z,10.90
2022-08-17T23:27:24.611Z,11.80
2022-08-17T23:29:55.706Z,12.60
2022-08-17T23:32:29.141Z,13.70
2022-08-17T23:35:02.702Z,12.80
2022-08-17T23:37:36.493Z,12.70
2022-08-17T23:40:09.950Z,11.60
2022-08-17T23:42:47.294Z,12.00
2022-08-17T23:45:18.461Z,12.40
2022-08-17T23:47:52.638Z,12.10
2022-08-17T23:50:29.912Z,12.90
2022-08-17T23:53:01.153Z,12.90
2022-08-17T23:55:36.377Z,13.00
2022-08-17T23:58:08.609Z,12.40
